Airfield :
LOGIN :

Register | Disclaimer

   EN    FR    IT 

 










Legend :    VFR   Marginal VFR   IFR   Intensive IFR   Very Intensive IFR
Visi :
Ceiling :
>= 8 km
>= 3000ft
5 to 8 km
1000 to 3000 ft
1500m to 5 km
500 to 1000 ft
800 to 1500m
200 to 500 ft
< 800m
< 200 ft
Symbols :   Thunderstorms  Fog  Heavy snow  Heavy precipitations  Wind > 20 kt
SIGMETs :     Misc.  Thunderstorms  Icing  Turbulence  Mountain Waves  Volcanic Ashes







- Airport Elevation : 183 ft
- IATA code : HAJ


EDDV - Hanover/Langenhagen Int.

CURRENT METAR :
  • 210950Z 24012KT 210V270 CAVOK 24/11 Q1002 TEMPO 24020G35KT

EXPIRED METARs :
  • 210920Z 23012KT 200V260 CAVOK 25/12 Q1003 TEMPO 20020G35KT
  • 210850Z 21016KT 170V230 CAVOK 24/13 Q1002 TEMPO 20020G35KT
  • 210820Z 21016G26KT 180V240 CAVOK 24/13 Q1002 TEMPO 20020G35KT
  • 210750Z 20016G26KT 150V240 CAVOK 24/12 Q1002 TEMPO 20020G35KT
  • 210720Z 19013G24KT 150V250 CAVOK 23/12 Q1003 TEMPO 20020G30KT
  • 210650Z 19012KT 160V230 CAVOK 23/12 Q1003 BECMG 20015G25KT

TAF TAF EDDV
Valid from the 21 at 06:00 until the 22 at 06:00 UTC


210500Z 2106/2206 19010KT 9999 SCT035
BECMG 2106/2108 24015G25KT
BECMG 2108/2110 23020G35KT
TEMPO 2109/2112 24025G45KT 4500 RA
PROB30
TEMPO 2112/2115 24025G45KT
BECMG 2117/2120 25012KT
PROB30
TEMPO 2122/2206 25015G25KT
No reported NOTAMs for that airfield.
1 SIGMET reported for the Bremen FIR (EDWW) :
 
Severe turbulence
EDWW SIGMET 2 VALID 210900/211200 EDZH
EDWW BREMEN FIR SEV TURB FCST W OF E01030 SFC/3000FT MOV NE WKN=



MET'MAP, your aeronautical weather chart ! - Copyright ORBIFLY December 2007 - Disclaimer

ORBIFLY MET'MAP TEAM :

Programming & Development : Alexandra Zaïnal
Concept & Development : Baudouin d'Aumeries
Co-Development & Prog : Marc-Olivier Méhu
Technical & hardware support : Manuel Goepfert

Contact : metmap@orbifly.com




SOURCES & CREDITS :

   NOAA